Time;durP1;ratioP1;P1;durP2;ratioP2;P2;SDS_P1;SDS_P2;PMS_P1;PMS_P2;Temp;Humidity;BMP_temperature;BMP_pressure;BME280_temperature;BME280_humidity;BME280_pressure;Samples;Min_cycle;Max_cycle;Signal;HPM_P1;HPM_P2
2022/09/10 00:00:42;;;;;;;11.93;9.40;;;15.50;99.90;;;;;;5074031;28;20205;-56
2022/09/10 00:03:08;;;;;;;11.77;9.18;;;15.60;99.90;;;;;;5073838;28;20131;-56
2022/09/10 00:05:43;;;;;;;13.07;9.10;;;15.60;99.90;;;;;;5073978;28;20056;-56
2022/09/10 00:08:09;;;;;;;12.25;9.70;;;15.60;99.90;;;;;;5073556;28;20514;-56
2022/09/10 00:10:51;;;;;;;11.20;9.30;;;15.60;99.90;;;;;;5056034;28;20136;-56
2022/09/10 00:13:21;;;;;;;13.95;9.65;;;15.80;99.90;;;;;;5073555;28;20048;-56
2022/09/10 00:15:51;;;;;;;10.52;9.48;;;15.70;99.90;;;;;;5073890;28;20449;-56
2022/09/10 00:18:20;;;;;;;11.10;9.95;;;15.80;99.90;;;;;;5056241;28;20045;-56
2022/09/10 00:20:52;;;;;;;13.00;8.60;;;15.70;99.90;;;;;;5073758;28;20117;-56
2022/09/10 00:23:20;;;;;;;12.35;9.93;;;15.70;99.90;;;;;;5073668;28;20040;-56
2022/09/10 00:25:47;;;;;;;;;;;15.80;99.90;;;;;;5074173;28;20072;-56
2022/09/10 00:28:12;;;;;;;14.60;10.48;;;15.60;99.90;;;;;;5073749;28;19917;-55
2022/09/10 00:30:43;;;;;;;12.13;10.35;;;15.80;99.90;;;;;;5073799;28;20049;-55
2022/09/10 00:33:09;;;;;;;14.45;10.60;;;15.80;99.90;;;;;;5074159;28;20167;-56
2022/09/10 00:35:36;;;;;;;13.40;9.57;;;15.70;99.90;;;;;;5073664;28;20051;-55
2022/09/10 00:38:03;;;;;;;19.75;10.98;;;15.80;99.90;;;;;;5073527;28;20505;-56
2022/09/10 00:40:29;;;;;;;15.20;9.98;;;15.60;99.90;;;;;;5073260;28;20056;-55
2022/09/10 00:42:55;;;;;;;10.57;9.48;;;15.70;99.90;;;;;;5073439;28;20055;-56
2022/09/10 00:45:24;;;;;;;11.68;9.80;;;15.60;99.90;;;;;;5073622;28;20049;-56
2022/09/10 00:47:52;;;;;;;12.27;10.90;;;15.70;99.90;;;;;;5073250;28;20045;-56
2022/09/10 00:50:22;;;;;;;14.68;10.73;;;15.60;99.90;;;;;;5073605;28;20157;-56
2022/09/10 00:52:52;;;;;;;12.00;10.30;;;15.70;99.90;;;;;;5056299;28;20094;-56
2022/09/10 00:55:19;;;;;;;11.18;9.98;;;15.80;99.90;;;;;;5077562;28;20076;-56
2022/09/10 00:57:48;;;;;;;15.90;10.73;;;15.60;99.90;;;;;;5077383;28;20048;-56
2022/09/10 01:00:14;;;;;;;;;;;15.70;99.90;;;;;;5077864;28;20098;-56
2022/09/10 01:02:41;;;;;;;18.55;12.45;;;15.70;99.90;;;;;;5077226;28;20402;-55
2022/09/10 01:05:08;;;;;;;13.95;12.43;;;15.60;99.90;;;;;;5077340;28;20036;-56
2022/09/10 01:07:35;;;;;;;14.70;12.13;;;15.60;99.90;;;;;;5077267;28;20040;-56
2022/09/10 01:10:23;;;;;;;17.00;12.88;;;15.60;99.90;;;;;;5077796;28;20040;-55
2022/09/10 01:13:13;;;;;;;12.95;11.55;;;15.60;99.90;;;;;;5077202;28;20097;-56
2022/09/10 01:16:01;;;;;;;14.95;11.50;;;15.60;99.90;;;;;;5077144;28;20052;-56
2022/09/10 01:19:23;;;;;;;12.23;11.00;;;15.60;99.90;;;;;;5076922;28;20070;-56
2022/09/10 01:22:04;;;;;;;16.73;12.05;;;15.70;99.90;;;;;;4975985;28;20505;-56
2022/09/10 01:24:51;;;;;;;14.45;12.40;;;15.60;99.90;;;;;;4975946;28;20125;-55
2022/09/10 01:27:40;;;;;;;14.68;12.27;;;15.60;99.90;;;;;;4976044;28;20049;-54
2022/09/10 01:30:28;;;;;;;17.08;11.98;;;15.70;99.90;;;;;;4975921;28;20062;-56
2022/09/10 01:33:08;;;;;;;14.50;12.98;;;15.70;99.90;;;;;;4975931;28;20065;-56
2022/09/10 01:35:40;;;;;;;14.02;12.25;;;15.70;99.90;;;;;;4975915;28;20054;-56
2022/09/10 01:38:14;;;;;;;16.25;13.45;;;15.80;99.90;;;;;;4976202;28;20145;-56
2022/09/10 01:40:42;;;;;;;15.30;13.40;;;15.70;99.90;;;;;;4975891;28;20129;-55
2022/09/10 01:43:09;;;;;;;15.05;12.70;;;15.60;99.90;;;;;;4975500;28;20069;-54
2022/09/10 01:45:41;;;;;;;16.48;13.20;;;15.60;99.90;;;;;;4975690;28;20193;-54
2022/09/10 01:48:38;;;;;;;14.18;12.90;;;15.60;99.90;;;;;;4975717;28;20082;-55
2022/09/10 01:51:19;;;;;;;15.27;13.70;;;15.70;99.90;;;;;;4959564;28;20547;-55
2022/09/10 01:54:10;;;;;;;19.27;14.27;;;15.60;99.90;;;;;;4975878;28;20058;-55
2022/09/10 01:57:12;;;;;;;16.88;14.82;;;15.60;99.90;;;;;;4975554;28;20051;-54
2022/09/10 01:59:53;;;;;;;17.23;14.15;;;15.70;99.90;;;;;;5056317;28;20045;-55
2022/09/10 02:02:32;;;;;;;18.17;15.60;;;15.70;99.90;;;;;;5056045;28;20488;-55
2022/09/10 02:05:01;;;;;;;19.13;15.65;;;15.70;99.90;;;;;;5056026;28;20381;-54
2022/09/10 02:07:29;;;;;;;22.67;18.33;;;15.70;99.90;;;;;;5055878;28;20033;-54
2022/09/10 02:09:56;;;;;;;23.47;18.63;;;15.70;99.90;;;;;;5038473;28;20080;-56
2022/09/10 02:12:22;;;;;;;21.48;17.02;;;15.80;99.90;;;;;;5056145;28;20095;-55
2022/09/10 02:14:54;;;;;;;28.40;19.25;;;15.80;99.90;;;;;;5055993;28;20399;-55
2022/09/10 02:17:22;;;;;;;25.45;17.80;;;15.70;99.90;;;;;;5056047;28;20049;-55
2022/09/10 02:19:51;;;;;;;28.70;19.85;;;15.80;99.90;;;;;;5055707;28;20491;-55
2022/09/10 02:22:18;;;;;;;23.45;18.30;;;15.80;99.90;;;;;;5055842;28;20052;-55
2022/09/10 02:24:44;;;;;;;28.50;20.23;;;15.80;99.90;;;;;;5055776;28;20048;-55
2022/09/10 02:27:11;;;;;;;28.33;20.77;;;15.70;99.90;;;;;;5056145;28;20072;-55
2022/09/10 02:29:37;;;;;;;28.55;19.65;;;15.70;99.90;;;;;;5055834;28;20041;-55
2022/09/10 02:32:05;;;;;;;24.08;20.42;;;15.70;99.90;;;;;;5055702;28;20404;-55
2022/09/10 02:34:31;;;;;;;27.48;20.77;;;15.80;99.90;;;;;;5055756;28;20052;-55
2022/09/10 02:36:57;;;;;;;26.13;21.25;;;15.80;99.90;;;;;;5055591;28;20124;-55
2022/09/10 02:39:23;;;;;;;28.25;20.38;;;15.70;99.90;;;;;;5066151;28;20087;-54
2022/09/10 02:41:49;;;;;;;28.58;21.73;;;15.70;99.90;;;;;;5075518;28;20445;-54
2022/09/10 02:44:14;;;;;;;27.30;22.73;;;15.80;99.90;;;;;;5075563;28;20044;-55
2022/09/10 02:46:40;;;;;;;25.80;21.65;;;15.70;99.90;;;;;;5057407;28;20495;-55
2022/09/10 02:49:06;;;;;;;27.08;21.02;;;15.70;99.90;;;;;;5075344;28;20045;-55
2022/09/10 02:51:32;;;;;;;26.80;21.25;;;15.70;99.90;;;;;;5075316;28;20114;-55
2022/09/10 02:53:57;;;;;;;25.25;19.92;;;15.60;99.90;;;;;;5075528;28;20040;-55
2022/09/10 02:56:23;;;;;;;31.13;22.30;;;15.60;99.90;;;;;;5057578;28;20033;-55
2022/09/10 02:58:49;;;;;;;27.92;21.52;;;15.70;99.90;;;;;;5075151;28;20487;-56
2022/09/10 03:01:18;;;;;;;35.17;22.92;;;15.60;99.90;;;;;;5075163;28;20052;-56
2022/09/10 03:03:51;;;;;;;26.52;21.17;;;15.60;99.90;;;;;;5075029;28;20045;-54
2022/09/10 03:06:17;;;;;;;28.00;21.98;;;15.70;99.90;;;;;;5075077;28;20044;-55
2022/09/10 03:08:43;;;;;;;27.60;20.88;;;15.70;99.90;;;;;;5074972;28;20048;-55
2022/09/10 03:11:11;;;;;;;27.48;21.88;;;15.70;99.90;;;;;;5075115;28;20113;-55
2022/09/10 03:13:37;;;;;;;26.27;22.05;;;15.70;99.90;;;;;;5074941;28;20097;-54
2022/09/10 03:16:03;;;;;;;29.73;22.75;;;15.70;99.90;;;;;;5074076;28;20044;-54
2022/09/10 03:18:30;;;;;;;26.92;22.80;;;15.70;99.90;;;;;;5056868;28;20055;-54
2022/09/10 03:21:07;;;;;;;28.70;22.38;;;15.60;99.90;;;;;;5057076;28;20041;-55
2022/09/10 03:23:33;;;;;;;26.83;22.20;;;15.80;99.90;;;;;;5074657;28;20044;-54
2022/09/10 03:25:59;;;;;;;28.52;24.02;;;15.70;99.90;;;;;;5074537;28;20078;-56
2022/09/10 03:28:25;;;;;;;28.80;22.65;;;15.80;99.90;;;;;;5074693;28;20067;-54
2022/09/10 03:30:51;;;;;;;27.80;22.73;;;15.70;99.90;;;;;;5074530;28;20119;-56
2022/09/10 03:33:20;;;;;;;32.08;24.33;;;15.70;99.90;;;;;;5074503;28;20665;-55
2022/09/10 03:35:45;;;;;;;;;;;15.70;99.90;;;;;;5074945;28;20120;-55
2022/09/10 03:38:11;;;;;;;34.72;24.30;;;15.70;99.90;;;;;;5074142;28;20435;-55
2022/09/10 03:40:36;;;;;;;28.25;23.33;;;15.80;99.90;;;;;;5074343;28;20140;-55
2022/09/10 03:43:02;;;;;;;31.73;24.25;;;15.70;99.90;;;;;;5056335;28;20056;-55
2022/09/10 03:45:28;;;;;;;27.73;23.35;;;15.80;99.90;;;;;;5074242;28;20037;-55
2022/09/10 03:47:53;;;;;;;27.25;23.48;;;15.70;99.90;;;;;;5074032;28;20045;-55
2022/09/10 03:50:19;;;;;;;28.75;23.02;;;15.70;99.90;;;;;;5074230;28;20047;-55
2022/09/10 03:52:45;;;;;;;32.33;24.23;;;15.70;99.90;;;;;;5074082;28;20483;-54
2022/09/10 03:55:12;;;;;;;28.90;23.95;;;15.80;99.90;;;;;;5074003;28;20048;-55
2022/09/10 03:57:38;;;;;;;30.92;24.42;;;15.70;99.90;;;;;;5073912;28;20044;-55
2022/09/10 04:00:04;;;;;;;28.23;22.67;;;15.60;99.90;;;;;;5074011;28;20048;-55
2022/09/10 04:02:30;;;;;;;30.80;23.85;;;15.70;99.90;;;;;;5073900;28;20048;-55
2022/09/10 04:04:55;;;;;;;30.58;23.23;;;15.70;99.90;;;;;;5074028;28;20044;-55
2022/09/10 04:07:21;;;;;;;31.95;24.92;;;15.60;99.90;;;;;;5074067;28;20045;-55
2022/09/10 04:09:47;;;;;;;28.83;24.25;;;15.80;99.90;;;;;;5055895;28;20106;-55
2022/09/10 04:12:12;;;;;;;33.40;24.88;;;15.80;99.90;;;;;;5073618;28;20055;-55
2022/09/10 04:14:38;;;;;;;32.80;24.08;;;15.60;99.90;;;;;;5073858;28;20044;-55
2022/09/10 04:17:04;;;;;;;32.13;23.63;;;15.60;99.90;;;;;;5073862;28;20040;-55
2022/09/10 04:19:30;;;;;;;31.20;23.67;;;15.60;99.90;;;;;;5073852;28;20055;-55
2022/09/10 04:21:56;;;;;;;33.25;25.75;;;15.60;99.90;;;;;;5073540;28;20119;-55
2022/09/10 04:24:22;;;;;;;37.17;26.45;;;15.60;99.90;;;;;;5073794;28;20044;-54
2022/09/10 04:26:48;;;;;;;38.58;27.33;;;15.70;99.90;;;;;;5073716;28;20044;-54
2022/09/10 04:29:13;;;;;;;44.30;27.30;;;15.70;99.90;;;;;;5073699;28;20066;-55
2022/09/10 04:31:40;;;;;;;34.28;25.30;;;15.60;99.90;;;;;;5073429;28;20154;-54
2022/09/10 04:34:06;;;;;;;35.72;26.52;;;15.50;99.90;;;;;;5073608;28;20445;-55
2022/09/10 04:36:32;;;;;;;40.40;27.63;;;15.50;99.90;;;;;;5073561;28;20102;-55
2022/09/10 04:38:58;;;;;;;38.00;28.23;;;15.50;99.90;;;;;;5073406;28;20123;-55
2022/09/10 04:41:24;;;;;;;39.13;29.00;;;15.60;99.90;;;;;;5073507;28;20048;-55
2022/09/10 04:43:51;;;;;;;35.90;26.63;;;15.60;99.90;;;;;;5073335;28;20110;-55
2022/09/10 04:46:16;;;;;;;32.13;24.95;;;15.60;99.90;;;;;;5073799;28;20036;-55
2022/09/10 04:48:42;;;;;;;30.60;24.30;;;15.50;99.90;;;;;;5073537;28;20120;-56
2022/09/10 04:51:10;;;;;;;32.30;26.63;;;15.60;99.90;;;;;;5073314;28;20453;-55
2022/09/10 04:53:35;;;;;;;33.38;25.88;;;15.70;99.90;;;;;;5073234;28;20056;-56
2022/09/10 04:56:01;;;;;;;33.70;25.45;;;15.70;99.90;;;;;;5073406;28;20098;-58
2022/09/10 04:58:27;;;;;;;32.45;25.35;;;15.70;99.90;;;;;;5073225;28;20044;-54
2022/09/10 05:00:54;;;;;;;32.35;24.48;;;15.50;99.90;;;;;;5073564;28;20050;-55
2022/09/10 05:03:21;;;;;;;28.08;22.55;;;15.50;99.90;;;;;;5073411;28;20049;-55
2022/09/10 05:05:46;;;;;;;34.72;26.10;;;15.60;99.90;;;;;;5073402;28;20049;-54
2022/09/10 05:08:13;;;;;;;31.40;23.83;;;15.60;99.90;;;;;;5072588;28;20043;-55
2022/09/10 05:10:40;;;;;;;27.38;22.10;;;15.70;99.90;;;;;;5071908;28;20048;-55
2022/09/10 05:13:06;;;;;;;29.77;21.50;;;15.60;99.90;;;;;;5072076;28;20055;-55
2022/09/10 05:15:33;;;;;;;27.40;22.65;;;15.70;99.90;;;;;;5072907;28;20070;-55
2022/09/10 05:17:59;;;;;;;29.98;21.88;;;15.60;99.90;;;;;;5073229;28;20055;-55
2022/09/10 05:20:26;;;;;;;28.63;23.65;;;15.70;99.90;;;;;;5073494;28;20484;-55
2022/09/10 05:22:55;;;;;;;26.58;21.30;;;15.70;99.90;;;;;;5073254;28;20391;-55
2022/09/10 05:25:21;;;;;;;30.63;23.23;;;15.70;99.90;;;;;;5073125;28;20471;-55
2022/09/10 05:27:48;;;;;;;26.05;21.23;;;15.60;99.90;;;;;;5073871;28;20040;-55
2022/09/10 05:30:14;;;;;;;29.75;22.10;;;15.70;99.90;;;;;;5073189;28;20041;-55
2022/09/10 05:32:39;;;;;;;27.00;20.90;;;15.70;99.90;;;;;;5072778;28;20062;-55
2022/09/10 05:35:08;;;;;;;28.70;22.17;;;15.70;99.90;;;;;;5073399;28;20709;-55
2022/09/10 05:37:34;;;;;;;26.08;21.40;;;15.70;99.90;;;;;;5054924;28;20048;-55
2022/09/10 05:40:02;;;;;;;22.35;19.73;;;15.80;99.90;;;;;;5075576;28;20060;-55
2022/09/10 05:42:28;;;;;;;25.80;21.77;;;15.70;99.90;;;;;;5076611;28;20119;-54
2022/09/10 05:44:53;;;;;;;23.85;19.95;;;15.80;99.90;;;;;;5076681;28;20458;-55
2022/09/10 05:47:19;;;;;;;32.85;22.15;;;15.80;99.90;;;;;;5076604;28;20045;-55
2022/09/10 05:49:48;;;;;;;27.35;21.48;;;15.70;99.90;;;;;;5076550;28;20045;-55
2022/09/10 05:52:14;;;;;;;27.38;21.15;;;15.80;99.90;;;;;;5076619;28;20045;-56
2022/09/10 05:54:40;;;;;;;28.15;20.73;;;15.80;99.90;;;;;;5076153;28;20048;-57
2022/09/10 05:57:06;;;;;;;24.55;20.15;;;15.80;99.90;;;;;;5076537;28;20053;-55
2022/09/10 05:59:33;;;;;;;25.90;20.95;;;15.90;99.90;;;;;;5075886;28;20483;-55
2022/09/10 06:01:59;;;;;;;25.98;20.58;;;15.90;99.90;;;;;;5076224;28;20080;-56
2022/09/10 06:04:25;;;;;;;31.48;21.17;;;15.90;99.90;;;;;;5076279;28;20048;-54
2022/09/10 06:06:52;;;;;;;25.50;20.88;;;15.90;99.90;;;;;;5076352;28;20071;-55
2022/09/10 06:09:18;;;;;;;22.65;18.88;;;16.00;99.90;;;;;;5074707;28;20440;-55
2022/09/10 06:11:47;;;;;;;22.48;19.95;;;15.90;99.90;;;;;;5076241;28;20127;-55
2022/09/10 06:14:13;;;;;;;23.95;20.48;;;16.00;99.90;;;;;;5076116;28;20075;-55
2022/09/10 06:16:39;;;;;;;29.38;20.33;;;16.00;99.90;;;;;;5075784;28;20483;-55
2022/09/10 06:19:07;;;;;;;28.75;20.25;;;15.90;99.90;;;;;;5076009;28;20048;-55
2022/09/10 06:21:32;;;;;;;31.33;21.15;;;16.00;99.90;;;;;;5057743;28;20076;-55
2022/09/10 06:23:58;;;;;;;26.63;20.65;;;15.90;99.90;;;;;;5075894;28;20083;-56
2022/09/10 06:26:24;;;;;;;26.25;21.13;;;16.00;99.90;;;;;;5075699;28;20394;-56
2022/09/10 06:28:50;;;;;;;29.30;19.42;;;16.00;99.90;;;;;;5075881;28;20101;-56
2022/09/10 06:31:18;;;;;;;26.45;19.38;;;15.90;99.90;;;;;;5075631;28;20049;-57
2022/09/10 06:33:45;;;;;;;;;;;15.90;99.90;;;;;;5076154;28;20053;-54
2022/09/10 06:36:12;;;;;;;25.17;19.45;;;16.00;99.90;;;;;;5075635;28;20424;-55
2022/09/10 06:38:38;;;;;;;24.48;19.73;;;16.10;99.90;;;;;;5074872;28;20127;-56
2022/09/10 06:41:06;;;;;;;28.30;19.35;;;16.00;99.90;;;;;;5074176;28;20555;-55
2022/09/10 06:43:35;;;;;;;25.47;18.60;;;16.10;99.90;;;;;;5074685;28;20052;-56
2022/09/10 06:46:04;;;;;;;;;;;16.00;99.90;;;;;;5075958;28;20402;-56
2022/09/10 06:48:30;;;;;;;22.38;19.38;;;16.00;99.90;;;;;;5075497;28;20310;-56
2022/09/10 06:51:00;;;;;;;26.75;19.50;;;16.20;99.90;;;;;;5074270;28;20037;-55
2022/09/10 06:53:28;;;;;;;27.00;19.80;;;16.10;99.90;;;;;;5075261;28;20056;-55
2022/09/10 06:55:54;;;;;;;24.98;19.67;;;16.10;99.90;;;;;;5075472;28;20047;-54
2022/09/10 06:58:24;;;;;;;27.73;19.90;;;16.20;99.90;;;;;;5075227;28;20083;-55
2022/09/10 07:00:51;;;;;;;27.83;19.40;;;16.10;99.90;;;;;;5075118;28;20532;-55
2022/09/10 07:03:18;;;;;;;25.50;21.55;;;16.00;99.90;;;;;;5075062;28;20055;-55
2022/09/10 07:05:45;;;;;;;26.48;20.35;;;16.10;99.90;;;;;;5075080;28;20091;-55
2022/09/10 07:08:14;;;;;;;26.38;20.70;;;16.10;99.90;;;;;;5074741;28;20036;-56
2022/09/10 07:10:43;;;;;;;25.98;18.73;;;16.10;99.90;;;;;;5074978;28;20045;-55
2022/09/10 07:13:10;;;;;;;31.08;20.63;;;16.20;99.90;;;;;;5074914;28;20050;-56
2022/09/10 07:15:36;;;;;;;28.15;20.10;;;16.20;99.90;;;;;;5074839;28;20516;-56
2022/09/10 07:18:02;;;;;;;24.98;19.38;;;16.10;99.90;;;;;;5056753;28;20056;-56
2022/09/10 07:20:29;;;;;;;24.63;20.52;;;16.10;99.90;;;;;;5074722;28;20128;-56
2022/09/10 07:22:55;;;;;;;28.48;19.98;;;16.30;99.90;;;;;;5074401;28;20048;-56
2022/09/10 07:25:22;;;;;;;27.08;19.70;;;16.30;99.90;;;;;;5074774;28;20044;-56
2022/09/10 07:27:49;;;;;;;27.42;19.10;;;16.30;99.90;;;;;;5075165;28;20040;-55
2022/09/10 07:30:15;;;;;;;23.50;18.77;;;16.30;99.90;;;;;;5074586;28;20055;-55
2022/09/10 07:32:42;;;;;;;25.45;19.20;;;16.30;99.90;;;;;;5074413;28;20078;-54
2022/09/10 07:35:08;;;;;;;22.35;18.83;;;16.30;99.90;;;;;;5074688;28;20070;-55
2022/09/10 07:37:34;;;;;;;26.02;19.02;;;16.30;99.90;;;;;;5074365;28;20106;-55
2022/09/10 07:39:59;;;;;;;27.20;19.35;;;16.40;99.90;;;;;;5074064;28;20493;-55
2022/09/10 07:42:25;;;;;;;22.98;18.05;;;16.40;99.90;;;;;;5074237;28;20045;-55
2022/09/10 07:44:51;;;;;;;23.38;19.13;;;16.40;99.90;;;;;;5074254;28;20045;-55
2022/09/10 07:47:17;;;;;;;24.50;18.73;;;16.40;99.90;;;;;;5074218;28;20052;-55
2022/09/10 07:49:43;;;;;;;26.33;19.67;;;16.30;99.90;;;;;;5074346;28;20049;-55
2022/09/10 07:52:10;;;;;;;27.20;19.42;;;16.40;99.90;;;;;;5074555;28;20457;-56
2022/09/10 07:54:37;;;;;;;30.60;19.52;;;16.30;99.90;;;;;;5074138;28;20091;-56
2022/09/10 07:57:03;;;;;;;27.65;19.35;;;16.40;99.90;;;;;;5074093;28;20041;-54
2022/09/10 07:59:30;;;;;;;29.58;20.65;;;16.50;99.90;;;;;;5074100;28;20048;-55
2022/09/10 08:01:58;;;;;;;27.70;20.00;;;16.50;99.90;;;;;;5073710;28;20459;-54
2022/09/10 08:04:23;;;;;;;26.80;20.38;;;16.40;99.90;;;;;;5074060;28;20044;-55
2022/09/10 08:06:50;;;;;;;29.13;21.38;;;16.50;99.90;;;;;;5074109;28;20467;-54
2022/09/10 08:09:18;;;;;;;27.17;19.02;;;16.50;99.90;;;;;;5072686;28;20037;-56
2022/09/10 08:11:44;;;;;;;26.85;19.58;;;16.50;99.90;;;;;;5072569;28;20040;-54
2022/09/10 08:14:10;;;;;;;27.95;20.52;;;16.60;99.90;;;;;;5054650;28;20045;-54
2022/09/10 08:16:36;;;;;;;32.50;22.00;;;16.50;99.90;;;;;;5073885;28;20049;-55
2022/09/10 08:19:01;;;;;;;39.13;21.50;;;16.60;99.90;;;;;;5073894;28;20045;-62
2022/09/10 08:21:30;;;;;;;31.52;21.00;;;16.60;99.90;;;;;;5073818;28;20467;-63
2022/09/10 08:23:56;;;;;;;38.03;22.00;;;16.60;99.90;;;;;;5073571;28;20420;-63
2022/09/10 08:26:24;;;;;;;29.77;20.90;;;16.60;99.90;;;;;;5073708;28;20124;-63
2022/09/10 08:28:50;;;;;;;29.92;21.38;;;16.60;99.90;;;;;;5073692;28;20406;-55
2022/09/10 08:31:16;;;;;;;33.15;20.85;;;16.60;99.90;;;;;;5055882;28;20075;-55
2022/09/10 08:33:50;;;;;;;29.80;20.50;;;16.70;99.90;;;;;;5073715;28;20045;-56
2022/09/10 08:36:17;;;;;;;30.05;20.20;;;16.70;99.90;;;;;;5074017;28;20056;-56
2022/09/10 08:38:44;;;;;;;28.45;20.15;;;16.60;99.90;;;;;;5073394;28;20084;-64
2022/09/10 08:41:31;;;;;;;28.50;21.25;;;16.60;99.90;;;;;;5073524;28;20060;-64
2022/09/10 08:44:07;;;;;;;26.75;19.27;;;16.60;99.90;;;;;;5073549;28;20131;-63
2022/09/10 08:46:44;;;;;;;30.67;20.67;;;16.70;99.90;;;;;;5073390;28;20395;-63
2022/09/10 08:49:15;;;;;;;30.25;19.88;;;16.80;99.90;;;;;;5072600;28;20044;-63
2022/09/10 08:51:59;;;;;;;27.60;18.90;;;16.70;99.90;;;;;;5072767;28;20044;-62
2022/09/10 08:54:39;;;;;;;27.65;19.95;;;16.90;99.90;;;;;;5073574;28;20047;-62
2022/09/10 08:57:11;;;;;;;38.58;19.88;;;16.90;99.90;;;;;;5073596;28;20123;-63
2022/09/10 08:59:43;;;;;;;26.70;18.30;;;17.00;99.90;;;;;;5073538;28;20076;-63
2022/09/10 09:02:46;;;;;;;26.33;19.05;;;17.00;99.90;;;;;;5073314;28;20127;-63
2022/09/10 09:05:16;;;;;;;23.33;19.08;;;17.00;99.90;;;;;;4972618;28;20047;-55
2022/09/10 09:07:43;;;;;;;27.98;18.73;;;17.10;99.90;;;;;;4972392;28;20051;-55
2022/09/10 09:10:24;;;;;;;25.95;17.65;;;17.00;99.90;;;;;;4972620;28;20047;-56
2022/09/10 09:13:18;;;;;;;27.35;18.90;;;17.00;99.90;;;;;;4972379;28;20054;-56
2022/09/10 09:15:59;;;;;;;31.92;17.98;;;17.00;99.90;;;;;;4976081;28;20078;-55
2022/09/10 09:18:42;;;;;;;30.23;18.15;;;17.00;99.90;;;;;;4976299;28;20050;-55
2022/09/10 09:21:27;;;;;;;25.75;17.90;;;17.00;99.90;;;;;;4976023;28;20565;-63
2022/09/10 09:23:55;;;;;;;22.58;16.52;;;17.10;99.90;;;;;;4976063;28;20417;-56
2022/09/10 09:26:34;;;;;;;28.13;18.00;;;17.10;99.90;;;;;;4975987;28;20135;-56
2022/09/10 09:29:04;;;;;;;22.30;16.33;;;17.00;99.90;;;;;;4976052;28;20042;-55
2022/09/10 09:31:37;;;;;;;25.88;16.75;;;17.10;99.90;;;;;;4976102;28;20112;-55
2022/09/10 09:34:37;;;;;;;26.63;17.48;;;17.10;99.90;;;;;;4975814;28;20051;-63
2022/09/10 09:37:11;;;;;;;20.02;15.98;;;17.00;99.90;;;;;;4976002;28;20050;-56
2022/09/10 09:39:44;;;;;;;29.58;17.35;;;17.20;99.90;;;;;;4975606;28;20113;-56
2022/09/10 09:42:46;;;;;;;22.50;15.73;;;17.10;99.90;;;;;;5050754;28;20052;-63
2022/09/10 09:45:18;;;;;;;22.48;16.20;;;17.20;99.90;;;;;;5076736;28;20098;-64
2022/09/10 09:47:45;;;;;;;21.60;16.33;;;17.20;99.90;;;;;;5058819;28;20068;-63
2022/09/10 09:50:12;;;;;;;24.30;16.45;;;17.40;99.90;;;;;;5077037;28;20048;-63
2022/09/10 09:52:42;;;;;;;23.33;16.08;;;17.50;99.90;;;;;;5076477;28;20044;-63
2022/09/10 09:55:32;;;;;;;23.95;15.43;;;17.50;99.90;;;;;;5076485;28;20044;-62
2022/09/10 09:58:19;;;;;;;25.33;16.90;;;17.40;99.90;;;;;;5076468;28;20103;-62
2022/09/10 10:01:07;;;;;;;21.75;16.27;;;17.50;99.90;;;;;;5076322;28;20055;-62
2022/09/10 10:03:47;;;;;;;21.92;16.55;;;17.50;99.90;;;;;;4975366;28;20430;-62
2022/09/10 10:06:14;;;;;;;19.73;15.05;;;17.60;99.90;;;;;;4975466;28;20106;-63
2022/09/10 10:09:02;;;;;;;17.38;13.15;;;17.70;99.90;;;;;;4959178;28;20046;-64
2022/09/10 10:11:46;;;;;;;20.60;14.82;;;17.70;99.90;;;;;;4975258;28;20509;-62
2022/09/10 10:14:24;;;;;;;19.10;13.05;;;17.60;99.90;;;;;;4975203;28;20058;-62
2022/09/10 10:16:52;;;;;;;17.88;14.60;;;17.60;99.90;;;;;;4975306;28;20058;-62
2022/09/10 10:19:33;;;;;;;17.77;13.43;;;17.70;99.90;;;;;;4975249;28;20051;-63
2022/09/10 10:22:13;;;;;;;22.92;14.98;;;17.70;99.90;;;;;;4975158;28;20095;-62
2022/09/10 10:24:44;;;;;;;24.40;15.32;;;17.80;99.90;;;;;;4974756;28;20047;-63
2022/09/10 10:27:34;;;;;;;20.67;15.43;;;17.80;99.90;;;;;;4975042;28;20129;-62
2022/09/10 10:30:11;;;;;;;25.77;15.18;;;17.80;99.90;;;;;;4974891;28;20128;-64
2022/09/10 10:32:42;;;;;;;21.33;14.35;;;17.90;99.90;;;;;;4974908;28;20054;-62
2022/09/10 10:35:18;;;;;;;18.98;14.68;;;17.90;99.90;;;;;;4974768;28;20086;-63
2022/09/10 10:38:09;;;;;;;18.90;13.90;;;18.00;99.90;;;;;;4974971;28;20497;-63
2022/09/10 10:40:44;;;;;;;23.60;17.25;;;17.90;99.90;;;;;;5023644;28;20102;-63
2022/09/10 10:43:30;;;;;;;20.88;15.23;;;17.90;99.90;;;;;;5075565;28;20045;-63
2022/09/10 10:46:10;;;;;;;19.38;15.88;;;17.90;99.90;;;;;;5075524;28;20053;-63
2022/09/10 10:48:51;;;;;;;19.50;14.18;;;17.90;99.90;;;;;;5075520;28;20051;-64
2022/09/10 10:51:32;;;;;;;20.02;15.07;;;17.90;99.90;;;;;;5075408;28;20053;-63
2022/09/10 10:54:27;;;;;;;24.05;15.30;;;17.90;99.90;;;;;;5075330;28;20049;-63
2022/09/10 10:57:08;;;;;;;18.02;14.52;;;17.90;99.90;;;;;;5075312;28;20048;-63
2022/09/10 10:59:55;;;;;;;20.08;14.40;;;17.90;99.90;;;;;;5075326;28;20055;-63
2022/09/10 11:02:48;;;;;;;20.65;14.43;;;17.90;99.90;;;;;;5075072;28;20483;-63
2022/09/10 11:05:24;;;;;;;17.70;14.45;;;17.90;99.90;;;;;;4974304;28;20054;-63
2022/09/10 11:07:51;;;;;;;21.85;14.70;;;18.00;99.90;;;;;;4974741;28;20154;-63
2022/09/10 11:10:23;;;;;;;20.77;14.45;;;17.90;99.90;;;;;;4974218;28;20054;-63
2022/09/10 11:13:01;;;;;;;20.23;15.48;;;17.90;99.90;;;;;;4974292;28;20177;-63
2022/09/10 11:15:54;;;;;;;18.80;14.50;;;17.80;99.90;;;;;;4974146;28;20394;-63
2022/09/10 11:18:43;;;;;;;19.70;14.88;;;17.90;99.90;;;;;;4974000;28;20047;-63
2022/09/10 11:21:37;;;;;;;15.60;13.25;;;17.80;99.90;;;;;;4973771;28;20085;-63
2022/09/10 11:24:12;;;;;;;20.42;14.73;;;17.80;99.90;;;;;;4973891;28;20050;-63
2022/09/10 11:26:50;;;;;;;17.70;12.88;;;17.90;99.90;;;;;;4973879;28;20367;-63
2022/09/10 11:29:38;;;;;;;18.57;12.97;;;17.90;99.90;;;;;;4973811;28;20129;-62
2022/09/10 11:32:31;;;;;;;19.17;12.77;;;18.00;99.90;;;;;;4973764;28;20046;-63
2022/09/10 11:35:25;;;;;;;18.13;13.50;;;18.00;99.90;;;;;;4972621;28;20445;-55
2022/09/10 11:38:10;;;;;;;20.42;13.75;;;18.00;99.90;;;;;;4973185;28;20089;-55
2022/09/10 11:40:51;;;;;;;18.67;13.48;;;18.10;99.90;;;;;;4974163;28;20067;-55
2022/09/10 11:43:47;;;;;;;18.27;13.00;;;18.10;99.90;;;;;;5050201;28;20087;-55
2022/09/10 11:46:24;;;;;;;15.13;12.35;;;18.30;99.90;;;;;;4992839;28;20082;-55
2022/09/10 11:49:09;;;;;;;13.80;11.63;;;18.30;99.90;;;;;;4992736;28;20053;-63
2022/09/10 11:51:38;;;;;;;14.90;12.18;;;18.40;99.90;;;;;;4915911;29;20427;-63
2022/09/10 11:54:08;;;;;;;17.52;11.20;;;18.60;99.90;;;;;;4915999;29;20052;-62
2022/09/10 11:57:17;;;;;;;16.13;11.40;;;18.80;99.90;;;;;;4915889;29;20056;-62
2022/09/10 12:00:08;;;;;;;12.00;9.45;;;19.00;99.90;;;;;;4915877;29;20171;-62
2022/09/10 12:02:58;;;;;;;13.55;10.70;;;19.40;99.90;;;;;;4915672;29;20060;-62
2022/09/10 12:05:50;;;;;;;11.27;9.93;;;19.70;99.90;;;;;;4915943;29;20052;-62
2022/09/10 12:08:32;;;;;;;13.65;10.93;;;20.00;99.90;;;;;;4915528;29;20487;-63
2022/09/10 12:11:35;;;;;;;12.20;9.80;;;20.20;99.90;;;;;;4915781;29;20083;-61
2022/09/10 12:14:13;;;;;;;11.30;9.13;;;20.50;99.90;;;;;;4900023;29;20052;-62
2022/09/10 12:16:56;;;;;;;9.80;7.97;;;20.50;99.90;;;;;;4915700;29;20056;-63
2022/09/10 12:19:33;;;;;;;9.68;7.93;;;20.50;99.90;;;;;;4915713;29;20055;-62
2022/09/10 12:22:06;;;;;;;10.75;7.93;;;20.70;99.90;;;;;;4905814;28;20056;-62
2022/09/10 12:24:33;;;;;;;9.07;8.10;;;20.70;99.90;;;;;;4972812;28;20093;-63
2022/09/10 12:27:00;;;;;;;8.85;7.15;;;20.60;99.90;;;;;;4972896;28;20486;-63
2022/09/10 12:29:39;;;;;;;10.10;7.85;;;20.60;99.90;;;;;;5038602;28;20440;-63
2022/09/10 12:32:08;;;;;;;10.63;7.18;;;20.50;99.90;;;;;;5053748;28;20044;-63
2022/09/10 12:34:35;;;;;;;8.55;7.47;;;20.50;99.90;;;;;;5052982;28;20045;-63
2022/09/10 12:37:01;;;;;;;9.82;7.00;;;20.50;99.90;;;;;;5053631;28;20052;-55
2022/09/10 12:39:28;;;;;;;7.82;6.00;;;20.30;99.90;;;;;;5064723;28;20052;-55
2022/09/10 12:41:58;;;;;;;10.40;6.93;;;20.20;99.90;;;;;;5073715;28;20131;-55
2022/09/10 12:44:36;;;;;;;8.23;5.63;;;20.20;99.90;;;;;;5073643;28;20051;-54
2022/09/10 12:47:14;;;;;;;8.23;4.53;;;20.90;99.90;;;;;;5055873;28;20078;-55
2022/09/10 12:49:46;;;;;;;7.43;5.25;;;21.60;99.90;;;;;;5075703;28;20049;-54
2022/09/10 12:52:17;;;;;;;6.45;4.80;;;21.90;99.90;;;;;;5077526;28;20534;-54
2022/09/10 12:54:49;;;;;;;6.22;4.78;;;22.70;99.90;;;;;;5077675;28;20130;-53